sensor_id;sensor_type;location;lat;lon;timestamp;P1;durP1;ratioP1;P2;durP2;ratioP2
4585;SDS011;2305;50.118;8.952;2023-01-04T00:02:00;8.57;;;5.50;;
4585;SDS011;2305;50.118;8.952;2023-01-04T00:04:30;11.83;;;5.30;;
4585;SDS011;2305;50.118;8.952;2023-01-04T00:09:57;7.73;;;5.20;;
4585;SDS011;2305;50.118;8.952;2023-01-04T00:12:27;9.47;;;6.33;;
4585;SDS011;2305;50.118;8.952;2023-01-04T00:14:56;10.73;;;5.37;;
4585;SDS011;2305;50.118;8.952;2023-01-04T00:17:23;11.20;;;5.83;;
4585;SDS011;2305;50.118;8.952;2023-01-04T00:19:53;9.70;;;5.27;;
4585;SDS011;2305;50.118;8.952;2023-01-04T00:22:21;6.87;;;4.80;;
4585;SDS011;2305;50.118;8.952;2023-01-04T00:24:49;7.17;;;5.10;;
4585;SDS011;2305;50.118;8.952;2023-01-04T00:27:17;7.17;;;4.53;;
4585;SDS011;2305;50.118;8.952;2023-01-04T00:29:45;7.27;;;4.50;;
4585;SDS011;2305;50.118;8.952;2023-01-04T00:32:13;8.07;;;4.80;;
4585;SDS011;2305;50.118;8.952;2023-01-04T00:34:43;9.17;;;4.90;;
4585;SDS011;2305;50.118;8.952;2023-01-04T00:37:13;8.77;;;4.93;;
4585;SDS011;2305;50.118;8.952;2023-01-04T00:39:41;8.00;;;5.03;;
4585;SDS011;2305;50.118;8.952;2023-01-04T00:42:08;7.40;;;4.37;;
4585;SDS011;2305;50.118;8.952;2023-01-04T00:44:36;10.03;;;4.70;;
4585;SDS011;2305;50.118;8.952;2023-01-04T00:47:04;12.80;;;4.60;;
4585;SDS011;2305;50.118;8.952;2023-01-04T00:49:32;9.17;;;4.07;;
4585;SDS011;2305;50.118;8.952;2023-01-04T00:52:01;7.17;;;4.17;;
4585;SDS011;2305;50.118;8.952;2023-01-04T00:54:30;5.20;;;3.90;;
4585;SDS011;2305;50.118;8.952;2023-01-04T00:56:58;7.03;;;3.97;;
4585;SDS011;2305;50.118;8.952;2023-01-04T00:59:27;4.77;;;3.63;;
4585;SDS011;2305;50.118;8.952;2023-01-04T01:01:55;8.33;;;4.27;;
4585;SDS011;2305;50.118;8.952;2023-01-04T01:04:24;8.90;;;3.40;;
4585;SDS011;2305;50.118;8.952;2023-01-04T01:06:52;7.10;;;3.63;;
4585;SDS011;2305;50.118;8.952;2023-01-04T01:09:20;7.53;;;3.80;;
4585;SDS011;2305;50.118;8.952;2023-01-04T01:11:51;8.43;;;3.83;;
4585;SDS011;2305;50.118;8.952;2023-01-04T01:14:21;5.30;;;3.47;;
4585;SDS011;2305;50.118;8.952;2023-01-04T01:16:50;9.33;;;3.33;;
4585;SDS011;2305;50.118;8.952;2023-01-04T01:19:24;4.83;;;2.77;;
4585;SDS011;2305;50.118;8.952;2023-01-04T01:21:54;4.97;;;3.27;;
4585;SDS011;2305;50.118;8.952;2023-01-04T01:24:23;4.63;;;3.40;;
4585;SDS011;2305;50.118;8.952;2023-01-04T01:26:52;6.63;;;3.40;;
4585;SDS011;2305;50.118;8.952;2023-01-04T01:29:21;6.90;;;3.40;;
4585;SDS011;2305;50.118;8.952;2023-01-04T01:31:50;5.10;;;3.03;;
4585;SDS011;2305;50.118;8.952;2023-01-04T01:34:18;5.33;;;3.00;;
4585;SDS011;2305;50.118;8.952;2023-01-04T01:36:46;5.97;;;3.23;;
4585;SDS011;2305;50.118;8.952;2023-01-04T01:39:14;8.20;;;3.20;;
4585;SDS011;2305;50.118;8.952;2023-01-04T01:41:44;6.97;;;2.80;;
4585;SDS011;2305;50.118;8.952;2023-01-04T01:47:31;4.90;;;2.60;;
4585;SDS011;2305;50.118;8.952;2023-01-04T01:50:05;5.90;;;3.13;;
4585;SDS011;2305;50.118;8.952;2023-01-04T01:52:46;7.50;;;3.20;;
4585;SDS011;2305;50.118;8.952;2023-01-04T01:55:15;6.30;;;3.03;;
4585;SDS011;2305;50.118;8.952;2023-01-04T01:57:43;4.20;;;3.20;;
4585;SDS011;2305;50.118;8.952;2023-01-04T02:00:18;5.80;;;2.67;;
4585;SDS011;2305;50.118;8.952;2023-01-04T02:02:48;4.57;;;2.67;;
4585;SDS011;2305;50.118;8.952;2023-01-04T02:05:22;4.80;;;2.53;;
4585;SDS011;2305;50.118;8.952;2023-01-04T02:07:51;4.23;;;2.77;;
4585;SDS011;2305;50.118;8.952;2023-01-04T02:10:20;4.30;;;3.00;;
4585;SDS011;2305;50.118;8.952;2023-01-04T02:12:49;4.40;;;2.60;;
4585;SDS011;2305;50.118;8.952;2023-01-04T02:15:19;3.47;;;2.73;;
4585;SDS011;2305;50.118;8.952;2023-01-04T02:17:54;4.10;;;2.40;;
4585;SDS011;2305;50.118;8.952;2023-01-04T02:20:32;5.73;;;2.33;;
4585;SDS011;2305;50.118;8.952;2023-01-04T02:26:13;4.60;;;2.43;;
4585;SDS011;2305;50.118;8.952;2023-01-04T02:32:18;6.60;;;3.33;;
4585;SDS011;2305;50.118;8.952;2023-01-04T02:34:59;6.43;;;3.20;;
4585;SDS011;2305;50.118;8.952;2023-01-04T02:37:38;4.63;;;2.83;;
4585;SDS011;2305;50.118;8.952;2023-01-04T02:40:14;3.30;;;2.70;;
4585;SDS011;2305;50.118;8.952;2023-01-04T02:42:49;9.70;;;3.00;;
4585;SDS011;2305;50.118;8.952;2023-01-04T02:45:43;7.03;;;3.13;;
4585;SDS011;2305;50.118;8.952;2023-01-04T02:48:18;4.30;;;2.90;;
4585;SDS011;2305;50.118;8.952;2023-01-04T02:51:04;8.40;;;3.80;;
4585;SDS011;2305;50.118;8.952;2023-01-04T02:53:53;6.93;;;3.70;;
4585;SDS011;2305;50.118;8.952;2023-01-04T02:56:23;5.90;;;3.60;;
4585;SDS011;2305;50.118;8.952;2023-01-04T02:59:08;6.07;;;3.37;;
4585;SDS011;2305;50.118;8.952;2023-01-04T03:01:50;4.67;;;3.10;;
4585;SDS011;2305;50.118;8.952;2023-01-04T03:04:51;6.17;;;3.77;;
4585;SDS011;2305;50.118;8.952;2023-01-04T03:07:45;6.83;;;4.10;;
4585;SDS011;2305;50.118;8.952;2023-01-04T03:10:20;5.80;;;3.80;;
4585;SDS011;2305;50.118;8.952;2023-01-04T03:12:56;6.67;;;4.20;;
4585;SDS011;2305;50.118;8.952;2023-01-04T03:15:29;4.77;;;3.97;;
4585;SDS011;2305;50.118;8.952;2023-01-04T03:18:01;14.00;;;4.00;;
4585;SDS011;2305;50.118;8.952;2023-01-04T03:20:38;5.37;;;3.67;;
4585;SDS011;2305;50.118;8.952;2023-01-04T03:23:08;6.37;;;4.50;;
4585;SDS011;2305;50.118;8.952;2023-01-04T03:25:57;7.00;;;4.43;;
4585;SDS011;2305;50.118;8.952;2023-01-04T03:28:47;7.70;;;4.37;;
4585;SDS011;2305;50.118;8.952;2023-01-04T03:31:35;6.67;;;3.90;;
4585;SDS011;2305;50.118;8.952;2023-01-04T03:34:26;7.17;;;4.13;;
4585;SDS011;2305;50.118;8.952;2023-01-04T03:37:23;8.37;;;4.20;;
4585;SDS011;2305;50.118;8.952;2023-01-04T03:40:07;8.40;;;4.40;;
4585;SDS011;2305;50.118;8.952;2023-01-04T03:43:06;6.70;;;4.50;;
4585;SDS011;2305;50.118;8.952;2023-01-04T03:46:01;9.97;;;4.23;;
4585;SDS011;2305;50.118;8.952;2023-01-04T03:48:53;10.80;;;4.57;;
4585;SDS011;2305;50.118;8.952;2023-01-04T03:51:27;8.37;;;4.33;;
4585;SDS011;2305;50.118;8.952;2023-01-04T03:54:00;4.93;;;3.73;;
4585;SDS011;2305;50.118;8.952;2023-01-04T03:56:32;6.20;;;3.90;;
4585;SDS011;2305;50.118;8.952;2023-01-04T03:59:03;9.40;;;5.27;;
4585;SDS011;2305;50.118;8.952;2023-01-04T04:01:32;7.37;;;4.87;;
4585;SDS011;2305;50.118;8.952;2023-01-04T04:04:02;8.10;;;4.23;;
4585;SDS011;2305;50.118;8.952;2023-01-04T04:06:48;5.77;;;3.73;;
4585;SDS011;2305;50.118;8.952;2023-01-04T04:09:35;6.93;;;4.03;;
4585;SDS011;2305;50.118;8.952;2023-01-04T04:12:03;11.40;;;3.97;;
4585;SDS011;2305;50.118;8.952;2023-01-04T04:14:31;6.40;;;4.00;;
4585;SDS011;2305;50.118;8.952;2023-01-04T04:16:59;8.80;;;3.80;;
4585;SDS011;2305;50.118;8.952;2023-01-04T04:19:27;7.40;;;3.37;;
4585;SDS011;2305;50.118;8.952;2023-01-04T04:21:55;5.77;;;3.50;;
4585;SDS011;2305;50.118;8.952;2023-01-04T04:24:24;8.90;;;3.27;;
4585;SDS011;2305;50.118;8.952;2023-01-04T04:26:57;6.13;;;3.90;;
4585;SDS011;2305;50.118;8.952;2023-01-04T04:29:25;4.50;;;3.00;;
4585;SDS011;2305;50.118;8.952;2023-01-04T04:31:55;5.43;;;2.97;;
4585;SDS011;2305;50.118;8.952;2023-01-04T04:34:23;4.87;;;3.20;;
4585;SDS011;2305;50.118;8.952;2023-01-04T04:36:51;8.20;;;2.70;;
4585;SDS011;2305;50.118;8.952;2023-01-04T04:39:21;4.80;;;2.87;;
4585;SDS011;2305;50.118;8.952;2023-01-04T04:41:49;3.83;;;2.60;;
4585;SDS011;2305;50.118;8.952;2023-01-04T04:44:18;5.57;;;2.40;;
4585;SDS011;2305;50.118;8.952;2023-01-04T04:46:49;4.97;;;2.50;;
4585;SDS011;2305;50.118;8.952;2023-01-04T04:49:17;5.50;;;2.67;;
4585;SDS011;2305;50.118;8.952;2023-01-04T04:51:46;3.97;;;2.37;;
4585;SDS011;2305;50.118;8.952;2023-01-04T04:54:15;3.80;;;2.23;;
4585;SDS011;2305;50.118;8.952;2023-01-04T04:56:44;5.83;;;2.50;;
4585;SDS011;2305;50.118;8.952;2023-01-04T04:59:13;6.90;;;2.40;;
4585;SDS011;2305;50.118;8.952;2023-01-04T05:01:43;6.77;;;2.17;;
4585;SDS011;2305;50.118;8.952;2023-01-04T05:04:14;4.90;;;2.50;;
4585;SDS011;2305;50.118;8.952;2023-01-04T05:06:45;6.93;;;2.90;;
4585;SDS011;2305;50.118;8.952;2023-01-04T05:09:15;5.63;;;2.97;;
4585;SDS011;2305;50.118;8.952;2023-01-04T05:11:43;4.60;;;2.27;;
4585;SDS011;2305;50.118;8.952;2023-01-04T05:14:29;4.97;;;2.77;;
4585;SDS011;2305;50.118;8.952;2023-01-04T05:16:58;7.13;;;3.00;;
4585;SDS011;2305;50.118;8.952;2023-01-04T05:19:27;3.57;;;2.30;;
4585;SDS011;2305;50.118;8.952;2023-01-04T05:21:55;3.27;;;2.10;;
4585;SDS011;2305;50.118;8.952;2023-01-04T05:24:23;4.37;;;2.53;;
4585;SDS011;2305;50.118;8.952;2023-01-04T05:26:51;4.40;;;2.10;;
4585;SDS011;2305;50.118;8.952;2023-01-04T05:29:19;3.17;;;2.30;;
4585;SDS011;2305;50.118;8.952;2023-01-04T05:32:06;7.40;;;2.30;;
4585;SDS011;2305;50.118;8.952;2023-01-04T05:34:34;3.60;;;1.70;;
4585;SDS011;2305;50.118;8.952;2023-01-04T05:37:02;4.10;;;2.23;;
4585;SDS011;2305;50.118;8.952;2023-01-04T05:39:34;9.20;;;2.20;;
4585;SDS011;2305;50.118;8.952;2023-01-04T05:42:02;5.20;;;1.93;;
4585;SDS011;2305;50.118;8.952;2023-01-04T05:44:48;2.40;;;1.90;;
4585;SDS011;2305;50.118;8.952;2023-01-04T05:47:18;8.77;;;1.90;;
4585;SDS011;2305;50.118;8.952;2023-01-04T05:49:46;8.40;;;2.27;;
4585;SDS011;2305;50.118;8.952;2023-01-04T05:52:17;4.03;;;2.07;;
4585;SDS011;2305;50.118;8.952;2023-01-04T05:54:45;5.13;;;2.17;;
4585;SDS011;2305;50.118;8.952;2023-01-04T05:57:13;3.70;;;2.30;;
4585;SDS011;2305;50.118;8.952;2023-01-04T05:59:42;9.07;;;2.00;;
4585;SDS011;2305;50.118;8.952;2023-01-04T06:02:13;3.37;;;1.73;;
4585;SDS011;2305;50.118;8.952;2023-01-04T06:04:45;3.87;;;2.13;;
4585;SDS011;2305;50.118;8.952;2023-01-04T06:07:27;5.07;;;1.73;;
4585;SDS011;2305;50.118;8.952;2023-01-04T06:10:00;3.00;;;1.60;;
4585;SDS011;2305;50.118;8.952;2023-01-04T06:12:28;8.03;;;1.90;;
4585;SDS011;2305;50.118;8.952;2023-01-04T06:14:57;6.60;;;2.00;;
4585;SDS011;2305;50.118;8.952;2023-01-04T06:17:25;2.23;;;1.97;;
4585;SDS011;2305;50.118;8.952;2023-01-04T06:19:55;5.90;;;2.27;;
4585;SDS011;2305;50.118;8.952;2023-01-04T06:22:23;3.93;;;2.07;;
4585;SDS011;2305;50.118;8.952;2023-01-04T06:24:52;2.13;;;1.70;;
4585;SDS011;2305;50.118;8.952;2023-01-04T06:27:20;8.43;;;2.37;;
4585;SDS011;2305;50.118;8.952;2023-01-04T06:29:48;2.87;;;2.10;;
4585;SDS011;2305;50.118;8.952;2023-01-04T06:32:19;3.53;;;2.20;;
4585;SDS011;2305;50.118;8.952;2023-01-04T06:34:47;4.40;;;2.27;;
4585;SDS011;2305;50.118;8.952;2023-01-04T06:37:19;3.00;;;2.20;;
4585;SDS011;2305;50.118;8.952;2023-01-04T06:39:47;2.93;;;2.07;;
4585;SDS011;2305;50.118;8.952;2023-01-04T06:42:17;5.73;;;2.40;;
4585;SDS011;2305;50.118;8.952;2023-01-04T06:45:03;4.33;;;2.67;;
4585;SDS011;2305;50.118;8.952;2023-01-04T06:47:33;3.10;;;2.40;;
4585;SDS011;2305;50.118;8.952;2023-01-04T06:50:02;2.70;;;2.30;;
4585;SDS011;2305;50.118;8.952;2023-01-04T06:52:32;6.23;;;2.67;;
4585;SDS011;2305;50.118;8.952;2023-01-04T06:55:00;6.40;;;2.50;;
4585;SDS011;2305;50.118;8.952;2023-01-04T06:57:28;4.67;;;2.33;;
4585;SDS011;2305;50.118;8.952;2023-01-04T07:00:16;4.00;;;2.40;;
4585;SDS011;2305;50.118;8.952;2023-01-04T07:02:44;7.93;;;3.17;;
4585;SDS011;2305;50.118;8.952;2023-01-04T07:05:33;4.90;;;2.60;;
4585;SDS011;2305;50.118;8.952;2023-01-04T07:08:03;3.97;;;2.67;;
4585;SDS011;2305;50.118;8.952;2023-01-04T07:10:34;8.10;;;2.93;;
4585;SDS011;2305;50.118;8.952;2023-01-04T07:13:02;4.47;;;2.80;;
4585;SDS011;2305;50.118;8.952;2023-01-04T07:15:31;4.10;;;2.17;;
4585;SDS011;2305;50.118;8.952;2023-01-04T07:18:06;4.20;;;2.13;;
4585;SDS011;2305;50.118;8.952;2023-01-04T07:20:36;8.53;;;2.50;;
4585;SDS011;2305;50.118;8.952;2023-01-04T07:23:06;3.23;;;2.10;;
4585;SDS011;2305;50.118;8.952;2023-01-04T07:25:34;6.10;;;3.07;;
4585;SDS011;2305;50.118;8.952;2023-01-04T07:28:02;4.00;;;2.43;;
4585;SDS011;2305;50.118;8.952;2023-01-04T07:30:31;5.17;;;2.40;;
4585;SDS011;2305;50.118;8.952;2023-01-04T07:32:59;9.20;;;2.43;;
4585;SDS011;2305;50.118;8.952;2023-01-04T07:35:27;4.87;;;3.13;;
4585;SDS011;2305;50.118;8.952;2023-01-04T07:37:57;5.50;;;2.30;;
4585;SDS011;2305;50.118;8.952;2023-01-04T07:40:27;4.90;;;3.03;;
4585;SDS011;2305;50.118;8.952;2023-01-04T07:42:56;4.10;;;2.20;;
4585;SDS011;2305;50.118;8.952;2023-01-04T07:45:25;4.30;;;2.03;;
4585;SDS011;2305;50.118;8.952;2023-01-04T07:47:56;7.27;;;2.97;;
4585;SDS011;2305;50.118;8.952;2023-01-04T07:50:24;2.83;;;2.13;;
4585;SDS011;2305;50.118;8.952;2023-01-04T07:52:52;6.07;;;2.70;;
4585;SDS011;2305;50.118;8.952;2023-01-04T07:55:20;4.03;;;2.50;;
4585;SDS011;2305;50.118;8.952;2023-01-04T07:57:51;4.53;;;3.00;;
4585;SDS011;2305;50.118;8.952;2023-01-04T08:00:19;3.73;;;2.43;;
4585;SDS011;2305;50.118;8.952;2023-01-04T08:02:48;3.23;;;2.53;;
4585;SDS011;2305;50.118;8.952;2023-01-04T08:05:17;6.43;;;2.57;;
4585;SDS011;2305;50.118;8.952;2023-01-04T08:07:46;5.93;;;2.30;;
4585;SDS011;2305;50.118;8.952;2023-01-04T08:10:14;5.00;;;2.60;;
4585;SDS011;2305;50.118;8.952;2023-01-04T08:12:42;6.30;;;3.00;;
4585;SDS011;2305;50.118;8.952;2023-01-04T08:15:11;3.53;;;2.10;;
4585;SDS011;2305;50.118;8.952;2023-01-04T08:17:40;4.73;;;3.03;;
4585;SDS011;2305;50.118;8.952;2023-01-04T08:20:09;4.17;;;2.50;;
4585;SDS011;2305;50.118;8.952;2023-01-04T08:22:37;4.90;;;2.50;;
4585;SDS011;2305;50.118;8.952;2023-01-04T08:25:05;4.83;;;2.60;;
4585;SDS011;2305;50.118;8.952;2023-01-04T08:27:34;3.40;;;2.10;;
4585;SDS011;2305;50.118;8.952;2023-01-04T08:30:03;4.13;;;2.33;;
4585;SDS011;2305;50.118;8.952;2023-01-04T08:32:36;2.93;;;2.00;;
4585;SDS011;2305;50.118;8.952;2023-01-04T08:35:05;3.20;;;2.17;;
4585;SDS011;2305;50.118;8.952;2023-01-04T08:37:36;4.60;;;2.77;;
4585;SDS011;2305;50.118;8.952;2023-01-04T08:40:05;2.47;;;2.20;;
4585;SDS011;2305;50.118;8.952;2023-01-04T08:42:34;2.83;;;2.40;;
4585;SDS011;2305;50.118;8.952;2023-01-04T08:45:02;5.93;;;2.00;;
4585;SDS011;2305;50.118;8.952;2023-01-04T08:47:33;2.80;;;2.30;;
4585;SDS011;2305;50.118;8.952;2023-01-04T08:50:04;3.53;;;2.20;;
4585;SDS011;2305;50.118;8.952;2023-01-04T08:52:37;5.37;;;2.00;;
4585;SDS011;2305;50.118;8.952;2023-01-04T08:55:06;3.23;;;1.80;;
4585;SDS011;2305;50.118;8.952;2023-01-04T08:57:40;2.83;;;1.73;;
4585;SDS011;2305;50.118;8.952;2023-01-04T09:00:08;4.03;;;2.07;;
4585;SDS011;2305;50.118;8.952;2023-01-04T09:02:41;4.13;;;1.60;;
4585;SDS011;2305;50.118;8.952;2023-01-04T09:05:09;3.63;;;2.10;;
4585;SDS011;2305;50.118;8.952;2023-01-04T09:07:50;3.00;;;1.87;;
4585;SDS011;2305;50.118;8.952;2023-01-04T09:10:18;4.33;;;2.07;;
4585;SDS011;2305;50.118;8.952;2023-01-04T09:12:48;2.70;;;2.20;;
4585;SDS011;2305;50.118;8.952;2023-01-04T09:15:16;3.73;;;1.93;;
4585;SDS011;2305;50.118;8.952;2023-01-04T09:17:46;2.70;;;1.90;;
4585;SDS011;2305;50.118;8.952;2023-01-04T09:20:36;3.07;;;1.80;;
4585;SDS011;2305;50.118;8.952;2023-01-04T09:23:04;3.20;;;1.87;;
4585;SDS011;2305;50.118;8.952;2023-01-04T09:25:32;2.20;;;1.70;;
4585;SDS011;2305;50.118;8.952;2023-01-04T09:28:00;2.10;;;1.90;;
4585;SDS011;2305;50.118;8.952;2023-01-04T09:30:28;4.40;;;2.10;;
4585;SDS011;2305;50.118;8.952;2023-01-04T09:32:58;2.50;;;2.07;;
4585;SDS011;2305;50.118;8.952;2023-01-04T09:35:26;4.13;;;1.80;;
4585;SDS011;2305;50.118;8.952;2023-01-04T09:37:54;4.50;;;2.07;;
4585;SDS011;2305;50.118;8.952;2023-01-04T09:40:23;3.53;;;2.20;;
4585;SDS011;2305;50.118;8.952;2023-01-04T09:42:57;3.23;;;1.83;;
4585;SDS011;2305;50.118;8.952;2023-01-04T09:45:47;4.03;;;2.20;;
4585;SDS011;2305;50.118;8.952;2023-01-04T09:48:21;2.50;;;1.60;;
4585;SDS011;2305;50.118;8.952;2023-01-04T09:50:55;2.37;;;1.80;;
4585;SDS011;2305;50.118;8.952;2023-01-04T09:53:29;2.60;;;2.00;;
4585;SDS011;2305;50.118;8.952;2023-01-04T09:56:06;3.10;;;1.80;;
4585;SDS011;2305;50.118;8.952;2023-01-04T09:58:36;2.90;;;1.80;;
4585;SDS011;2305;50.118;8.952;2023-01-04T10:01:10;3.83;;;2.43;;
4585;SDS011;2305;50.118;8.952;2023-01-04T10:03:45;3.20;;;1.70;;
4585;SDS011;2305;50.118;8.952;2023-01-04T10:06:18;2.60;;;1.57;;
4585;SDS011;2305;50.118;8.952;2023-01-04T10:08:46;2.70;;;1.70;;
4585;SDS011;2305;50.118;8.952;2023-01-04T10:11:31;4.37;;;1.80;;
4585;SDS011;2305;50.118;8.952;2023-01-04T10:14:15;2.50;;;2.00;;
4585;SDS011;2305;50.118;8.952;2023-01-04T10:16:58;8.43;;;2.13;;
4585;SDS011;2305;50.118;8.952;2023-01-04T10:19:48;3.03;;;1.50;;
4585;SDS011;2305;50.118;8.952;2023-01-04T10:22:50;3.87;;;2.33;;
4585;SDS011;2305;50.118;8.952;2023-01-04T10:25:28;5.40;;;1.80;;
4585;SDS011;2305;50.118;8.952;2023-01-04T10:28:09;2.77;;;1.63;;
4585;SDS011;2305;50.118;8.952;2023-01-04T10:30:48;2.33;;;1.83;;
4585;SDS011;2305;50.118;8.952;2023-01-04T10:33:23;2.17;;;1.40;;
4585;SDS011;2305;50.118;8.952;2023-01-04T10:36:02;1.60;;;1.50;;
4585;SDS011;2305;50.118;8.952;2023-01-04T10:38:34;4.40;;;2.47;;
4585;SDS011;2305;50.118;8.952;2023-01-04T10:41:07;6.17;;;2.20;;
4585;SDS011;2305;50.118;8.952;2023-01-04T10:43:43;4.03;;;1.70;;
4585;SDS011;2305;50.118;8.952;2023-01-04T10:46:39;1.77;;;1.33;;
4585;SDS011;2305;50.118;8.952;2023-01-04T10:49:13;2.40;;;1.43;;
4585;SDS011;2305;50.118;8.952;2023-01-04T10:51:51;2.30;;;1.50;;
4585;SDS011;2305;50.118;8.952;2023-01-04T10:54:24;3.70;;;1.47;;
4585;SDS011;2305;50.118;8.952;2023-01-04T10:56:58;2.50;;;1.50;;
4585;SDS011;2305;50.118;8.952;2023-01-04T10:59:34;2.03;;;1.50;;
4585;SDS011;2305;50.118;8.952;2023-01-04T11:02:08;4.07;;;1.40;;
4585;SDS011;2305;50.118;8.952;2023-01-04T11:04:47;4.13;;;1.50;;
4585;SDS011;2305;50.118;8.952;2023-01-04T11:07:24;3.30;;;1.50;;
4585;SDS011;2305;50.118;8.952;2023-01-04T11:09:56;2.77;;;1.70;;
4585;SDS011;2305;50.118;8.952;2023-01-04T11:12:29;4.83;;;1.73;;
4585;SDS011;2305;50.118;8.952;2023-01-04T11:14:58;3.20;;;1.90;;
4585;SDS011;2305;50.118;8.952;2023-01-04T11:17:26;3.03;;;2.00;;
4585;SDS011;2305;50.118;8.952;2023-01-04T11:19:58;11.10;;;1.70;;
4585;SDS011;2305;50.118;8.952;2023-01-04T11:22:28;2.77;;;1.57;;
4585;SDS011;2305;50.118;8.952;2023-01-04T11:25:06;3.37;;;1.80;;
4585;SDS011;2305;50.118;8.952;2023-01-04T11:27:59;1.70;;;1.40;;
4585;SDS011;2305;50.118;8.952;2023-01-04T11:30:36;6.40;;;2.10;;
4585;SDS011;2305;50.118;8.952;2023-01-04T11:33:19;3.37;;;1.47;;
4585;SDS011;2305;50.118;8.952;2023-01-04T11:35:51;2.17;;;1.70;;
4585;SDS011;2305;50.118;8.952;2023-01-04T11:38:23;2.10;;;1.37;;
4585;SDS011;2305;50.118;8.952;2023-01-04T11:40:54;1.87;;;1.70;;
4585;SDS011;2305;50.118;8.952;2023-01-04T11:43:27;2.87;;;1.97;;
4585;SDS011;2305;50.118;8.952;2023-01-04T11:46:00;7.80;;;1.50;;
4585;SDS011;2305;50.118;8.952;2023-01-04T11:48:32;1.67;;;1.30;;
4585;SDS011;2305;50.118;8.952;2023-01-04T11:51:03;3.80;;;1.67;;
4585;SDS011;2305;50.118;8.952;2023-01-04T11:53:40;2.70;;;1.60;;
4585;SDS011;2305;50.118;8.952;2023-01-04T12:01:50;4.70;;;1.67;;
4585;SDS011;2305;50.118;8.952;2023-01-04T12:04:39;2.83;;;1.67;;
4585;SDS011;2305;50.118;8.952;2023-01-04T12:07:09;3.47;;;1.80;;
4585;SDS011;2305;50.118;8.952;2023-01-04T12:09:49;1.93;;;1.30;;
4585;SDS011;2305;50.118;8.952;2023-01-04T12:12:26;2.30;;;1.57;;
4585;SDS011;2305;50.118;8.952;2023-01-04T12:14:57;2.03;;;1.43;;
4585;SDS011;2305;50.118;8.952;2023-01-04T12:17:32;3.50;;;1.57;;
4585;SDS011;2305;50.118;8.952;2023-01-04T12:20:10;6.90;;;1.90;;
4585;SDS011;2305;50.118;8.952;2023-01-04T12:22:45;5.10;;;2.70;;
4585;SDS011;2305;50.118;8.952;2023-01-04T12:28:15;1.90;;;1.30;;
4585;SDS011;2305;50.118;8.952;2023-01-04T12:30:59;5.77;;;1.87;;
4585;SDS011;2305;50.118;8.952;2023-01-04T12:33:56;1.40;;;1.30;;
4585;SDS011;2305;50.118;8.952;2023-01-04T12:36:52;2.70;;;1.90;;
4585;SDS011;2305;50.118;8.952;2023-01-04T12:39:36;1.70;;;1.40;;
4585;SDS011;2305;50.118;8.952;2023-01-04T12:42:12;2.07;;;1.40;;
4585;SDS011;2305;50.118;8.952;2023-01-04T12:47:50;5.13;;;1.37;;
4585;SDS011;2305;50.118;8.952;2023-01-04T12:51:16;1.60;;;1.40;;
4585;SDS011;2305;50.118;8.952;2023-01-04T12:54:24;2.93;;;1.30;;
4585;SDS011;2305;50.118;8.952;2023-01-04T12:57:48;2.43;;;2.00;;
4585;SDS011;2305;50.118;8.952;2023-01-04T13:01:28;4.00;;;1.93;;
4585;SDS011;2305;50.118;8.952;2023-01-04T13:04:39;2.90;;;1.67;;
4585;SDS011;2305;50.118;8.952;2023-01-04T13:07:39;2.10;;;1.47;;
4585;SDS011;2305;50.118;8.952;2023-01-04T13:10:41;2.07;;;1.43;;
4585;SDS011;2305;50.118;8.952;2023-01-04T13:13:26;1.77;;;1.60;;
4585;SDS011;2305;50.118;8.952;2023-01-04T13:16:11;4.50;;;1.80;;
4585;SDS011;2305;50.118;8.952;2023-01-04T13:18:50;7.50;;;1.90;;
4585;SDS011;2305;50.118;8.952;2023-01-04T13:21:37;1.40;;;1.30;;
4585;SDS011;2305;50.118;8.952;2023-01-04T13:24:13;3.63;;;1.50;;
4585;SDS011;2305;50.118;8.952;2023-01-04T13:26:50;3.20;;;1.70;;
4585;SDS011;2305;50.118;8.952;2023-01-04T13:29:20;2.43;;;1.57;;
4585;SDS011;2305;50.118;8.952;2023-01-04T13:31:52;2.70;;;1.77;;
4585;SDS011;2305;50.118;8.952;2023-01-04T13:34:29;2.00;;;1.43;;
4585;SDS011;2305;50.118;8.952;2023-01-04T13:37:11;3.37;;;1.43;;
4585;SDS011;2305;50.118;8.952;2023-01-04T13:39:58;1.93;;;1.50;;
4585;SDS011;2305;50.118;8.952;2023-01-04T13:42:57;2.53;;;1.90;;
4585;SDS011;2305;50.118;8.952;2023-01-04T13:45:45;2.10;;;1.60;;
4585;SDS011;2305;50.118;8.952;2023-01-04T13:48:35;2.53;;;1.70;;
4585;SDS011;2305;50.118;8.952;2023-01-04T13:51:29;1.83;;;1.60;;
4585;SDS011;2305;50.118;8.952;2023-01-04T13:54:16;2.80;;;1.60;;
4585;SDS011;2305;50.118;8.952;2023-01-04T13:57:07;4.87;;;1.93;;
4585;SDS011;2305;50.118;8.952;2023-01-04T13:59:39;2.13;;;1.57;;
4585;SDS011;2305;50.118;8.952;2023-01-04T14:02:12;2.20;;;1.67;;
4585;SDS011;2305;50.118;8.952;2023-01-04T14:04:44;2.60;;;1.73;;
4585;SDS011;2305;50.118;8.952;2023-01-04T14:07:17;2.53;;;1.80;;
4585;SDS011;2305;50.118;8.952;2023-01-04T14:09:49;3.87;;;2.13;;
4585;SDS011;2305;50.118;8.952;2023-01-04T14:12:22;2.80;;;2.13;;
4585;SDS011;2305;50.118;8.952;2023-01-04T14:14:56;2.53;;;1.70;;
4585;SDS011;2305;50.118;8.952;2023-01-04T14:17:29;3.60;;;1.80;;
4585;SDS011;2305;50.118;8.952;2023-01-04T14:20:02;2.67;;;1.90;;
4585;SDS011;2305;50.118;8.952;2023-01-04T14:22:36;2.20;;;1.30;;
4585;SDS011;2305;50.118;8.952;2023-01-04T14:28:16;1.73;;;1.30;;
4585;SDS011;2305;50.118;8.952;2023-01-04T14:31:19;2.17;;;1.70;;
4585;SDS011;2305;50.118;8.952;2023-01-04T14:33:53;1.87;;;1.50;;
4585;SDS011;2305;50.118;8.952;2023-01-04T14:36:25;3.20;;;2.03;;
4585;SDS011;2305;50.118;8.952;2023-01-04T14:39:10;3.07;;;1.67;;
4585;SDS011;2305;50.118;8.952;2023-01-04T14:44:53;3.00;;;1.50;;
4585;SDS011;2305;50.118;8.952;2023-01-04T14:47:29;1.70;;;1.47;;
4585;SDS011;2305;50.118;8.952;2023-01-04T14:49:57;2.90;;;1.47;;
4585;SDS011;2305;50.118;8.952;2023-01-04T14:52:28;3.60;;;1.43;;
4585;SDS011;2305;50.118;8.952;2023-01-04T14:55:00;3.50;;;1.47;;
4585;SDS011;2305;50.118;8.952;2023-01-04T14:57:32;1.50;;;1.40;;
4585;SDS011;2305;50.118;8.952;2023-01-04T15:00:01;1.30;;;1.20;;
4585;SDS011;2305;50.118;8.952;2023-01-04T15:02:30;2.93;;;1.57;;
4585;SDS011;2305;50.118;8.952;2023-01-04T15:04:59;2.17;;;1.43;;
4585;SDS011;2305;50.118;8.952;2023-01-04T15:07:31;1.73;;;1.30;;
4585;SDS011;2305;50.118;8.952;2023-01-04T15:10:01;2.83;;;1.23;;
4585;SDS011;2305;50.118;8.952;2023-01-04T15:12:31;2.37;;;1.57;;
4585;SDS011;2305;50.118;8.952;2023-01-04T15:14:59;6.47;;;1.43;;
4585;SDS011;2305;50.118;8.952;2023-01-04T15:17:27;1.10;;;1.00;;
4585;SDS011;2305;50.118;8.952;2023-01-04T15:19:58;3.00;;;1.30;;
4585;SDS011;2305;50.118;8.952;2023-01-04T15:22:28;1.53;;;1.30;;
4585;SDS011;2305;50.118;8.952;2023-01-04T15:24:56;9.83;;;1.60;;
4585;SDS011;2305;50.118;8.952;2023-01-04T15:27:25;1.40;;;1.30;;
4585;SDS011;2305;50.118;8.952;2023-01-04T15:30:00;2.53;;;1.40;;
4585;SDS011;2305;50.118;8.952;2023-01-04T15:32:30;4.13;;;1.30;;
4585;SDS011;2305;50.118;8.952;2023-01-04T15:35:00;2.30;;;1.30;;
4585;SDS011;2305;50.118;8.952;2023-01-04T15:37:28;2.60;;;1.47;;
4585;SDS011;2305;50.118;8.952;2023-01-04T15:39:57;1.73;;;1.30;;
4585;SDS011;2305;50.118;8.952;2023-01-04T15:42:29;2.03;;;1.20;;
4585;SDS011;2305;50.118;8.952;2023-01-04T15:45:16;2.07;;;1.27;;
4585;SDS011;2305;50.118;8.952;2023-01-04T15:47:44;1.30;;;1.00;;
4585;SDS011;2305;50.118;8.952;2023-01-04T15:50:12;1.30;;;1.20;;
4585;SDS011;2305;50.118;8.952;2023-01-04T15:52:39;1.47;;;1.00;;
4585;SDS011;2305;50.118;8.952;2023-01-04T15:55:07;2.70;;;1.33;;
4585;SDS011;2305;50.118;8.952;2023-01-04T15:57:36;1.77;;;1.27;;
4585;SDS011;2305;50.118;8.952;2023-01-04T16:00:10;1.50;;;1.10;;
4585;SDS011;2305;50.118;8.952;2023-01-04T16:02:40;1.77;;;1.20;;
4585;SDS011;2305;50.118;8.952;2023-01-04T16:05:08;2.03;;;1.10;;
4585;SDS011;2305;50.118;8.952;2023-01-04T16:07:36;1.50;;;0.80;;
4585;SDS011;2305;50.118;8.952;2023-01-04T16:10:05;2.40;;;1.50;;
4585;SDS011;2305;50.118;8.952;2023-01-04T16:12:33;1.57;;;1.40;;
4585;SDS011;2305;50.118;8.952;2023-01-04T16:15:19;1.77;;;1.27;;
4585;SDS011;2305;50.118;8.952;2023-01-04T16:17:49;1.30;;;1.00;;
4585;SDS011;2305;50.118;8.952;2023-01-04T16:20:18;3.83;;;1.50;;
4585;SDS011;2305;50.118;8.952;2023-01-04T16:22:47;1.50;;;1.30;;
4585;SDS011;2305;50.118;8.952;2023-01-04T16:25:15;1.50;;;1.10;;
4585;SDS011;2305;50.118;8.952;2023-01-04T16:27:43;2.13;;;1.47;;
4585;SDS011;2305;50.118;8.952;2023-01-04T16:30:12;1.60;;;1.23;;